sensor_id;sensor_type;location;lat;lon;timestamp;temperature;humidity
4615;DHT22;2320;51.362;6.946;2022-11-18T00:02:14;10.70;99.90
4615;DHT22;2320;51.362;6.946;2022-11-18T00:04:40;10.80;99.90
4615;DHT22;2320;51.362;6.946;2022-11-18T00:07:05;10.80;99.90
4615;DHT22;2320;51.362;6.946;2022-11-18T00:09:30;11.00;99.90
4615;DHT22;2320;51.362;6.946;2022-11-18T00:11:56;11.00;99.90
4615;DHT22;2320;51.362;6.946;2022-11-18T00:14:40;11.00;99.90
4615;DHT22;2320;51.362;6.946;2022-11-18T00:17:06;11.00;99.90
4615;DHT22;2320;51.362;6.946;2022-11-18T00:19:32;11.10;99.90
4615;DHT22;2320;51.362;6.946;2022-11-18T00:21:58;11.00;99.90
4615;DHT22;2320;51.362;6.946;2022-11-18T00:24:24;11.00;99.90
4615;DHT22;2320;51.362;6.946;2022-11-18T00:26:49;11.10;99.90
4615;DHT22;2320;51.362;6.946;2022-11-18T00:29:15;11.10;99.90
4615;DHT22;2320;51.362;6.946;2022-11-18T00:31:41;11.10;99.90
4615;DHT22;2320;51.362;6.946;2022-11-18T00:34:06;11.00;99.90
4615;DHT22;2320;51.362;6.946;2022-11-18T00:36:32;10.90;99.90
4615;DHT22;2320;51.362;6.946;2022-11-18T00:38:57;10.80;99.90
4615;DHT22;2320;51.362;6.946;2022-11-18T00:41:23;10.70;99.90
4615;DHT22;2320;51.362;6.946;2022-11-18T00:43:48;10.70;99.90
4615;DHT22;2320;51.362;6.946;2022-11-18T00:46:14;10.60;99.90
4615;DHT22;2320;51.362;6.946;2022-11-18T00:48:39;10.50;99.90
4615;DHT22;2320;51.362;6.946;2022-11-18T00:51:09;10.40;99.90
4615;DHT22;2320;51.362;6.946;2022-11-18T00:53:35;10.40;99.90
4615;DHT22;2320;51.362;6.946;2022-11-18T00:56:00;10.30;99.90
4615;DHT22;2320;51.362;6.946;2022-11-18T00:58:26;10.40;99.90
4615;DHT22;2320;51.362;6.946;2022-11-18T01:00:53;10.40;99.90
4615;DHT22;2320;51.362;6.946;2022-11-18T01:03:18;10.40;99.90
4615;DHT22;2320;51.362;6.946;2022-11-18T01:05:44;10.40;99.90
4615;DHT22;2320;51.362;6.946;2022-11-18T01:08:10;10.50;99.90
4615;DHT22;2320;51.362;6.946;2022-11-18T01:10:36;10.40;99.90
4615;DHT22;2320;51.362;6.946;2022-11-18T01:13:02;10.50;99.90
4615;DHT22;2320;51.362;6.946;2022-11-18T01:15:48;10.50;99.90
4615;DHT22;2320;51.362;6.946;2022-11-18T01:18:14;10.50;99.90
4615;DHT22;2320;51.362;6.946;2022-11-18T01:20:40;10.50;99.90
4615;DHT22;2320;51.362;6.946;2022-11-18T01:23:05;10.40;99.90
4615;DHT22;2320;51.362;6.946;2022-11-18T01:25:31;10.40;99.90
4615;DHT22;2320;51.362;6.946;2022-11-18T01:27:56;10.40;99.90
4615;DHT22;2320;51.362;6.946;2022-11-18T01:30:22;10.40;99.90
4615;DHT22;2320;51.362;6.946;2022-11-18T01:32:47;10.40;99.90
4615;DHT22;2320;51.362;6.946;2022-11-18T01:35:13;10.40;99.90
4615;DHT22;2320;51.362;6.946;2022-11-18T01:37:39;10.40;99.90
4615;DHT22;2320;51.362;6.946;2022-11-18T01:40:05;10.40;99.90
4615;DHT22;2320;51.362;6.946;2022-11-18T01:42:30;10.40;99.90
4615;DHT22;2320;51.362;6.946;2022-11-18T01:47:25;10.40;99.90
4615;DHT22;2320;51.362;6.946;2022-11-18T01:49:52;10.30;99.90
4615;DHT22;2320;51.362;6.946;2022-11-18T01:52:17;10.40;99.90
4615;DHT22;2320;51.362;6.946;2022-11-18T01:54:45;10.40;99.90
4615;DHT22;2320;51.362;6.946;2022-11-18T01:57:13;10.30;99.90
4615;DHT22;2320;51.362;6.946;2022-11-18T01:59:41;10.30;99.90
4615;DHT22;2320;51.362;6.946;2022-11-18T02:02:09;10.30;99.90
4615;DHT22;2320;51.362;6.946;2022-11-18T02:04:36;10.30;99.90
4615;DHT22;2320;51.362;6.946;2022-11-18T02:07:02;10.40;99.90
4615;DHT22;2320;51.362;6.946;2022-11-18T02:09:28;10.50;99.90
4615;DHT22;2320;51.362;6.946;2022-11-18T02:11:54;10.50;99.90
4615;DHT22;2320;51.362;6.946;2022-11-18T02:14:21;10.40;99.90
4615;DHT22;2320;51.362;6.946;2022-11-18T02:29:58;10.60;99.90
4615;DHT22;2320;51.362;6.946;2022-11-18T02:32:30;10.50;99.90
4615;DHT22;2320;51.362;6.946;2022-11-18T02:35:01;10.60;99.90
4615;DHT22;2320;51.362;6.946;2022-11-18T02:37:35;10.60;99.90
4615;DHT22;2320;51.362;6.946;2022-11-18T02:42:30;10.50;99.90
4615;DHT22;2320;51.362;6.946;2022-11-18T02:44:59;10.50;99.90
4615;DHT22;2320;51.362;6.946;2022-11-18T02:47:26;10.50;99.90
4615;DHT22;2320;51.362;6.946;2022-11-18T02:49:54;10.60;99.90
4615;DHT22;2320;51.362;6.946;2022-11-18T02:52:20;10.60;99.90
4615;DHT22;2320;51.362;6.946;2022-11-18T02:54:47;10.60;99.90
4615;DHT22;2320;51.362;6.946;2022-11-18T02:57:13;10.60;99.90
4615;DHT22;2320;51.362;6.946;2022-11-18T02:59:39;10.60;99.90
4615;DHT22;2320;51.362;6.946;2022-11-18T03:02:05;10.70;99.90
4615;DHT22;2320;51.362;6.946;2022-11-18T03:04:30;10.70;99.90
4615;DHT22;2320;51.362;6.946;2022-11-18T03:09:38;10.70;99.90
4615;DHT22;2320;51.362;6.946;2022-11-18T03:17:00;10.70;99.90
4615;DHT22;2320;51.362;6.946;2022-11-18T03:19:42;10.70;99.90
4615;DHT22;2320;51.362;6.946;2022-11-18T03:24:39;10.70;99.90
4615;DHT22;2320;51.362;6.946;2022-11-18T03:27:09;10.70;99.90
4615;DHT22;2320;51.362;6.946;2022-11-18T03:29:38;10.60;99.90
4615;DHT22;2320;51.362;6.946;2022-11-18T03:32:05;10.60;99.90
4615;DHT22;2320;51.362;6.946;2022-11-18T03:34:35;10.80;99.90
4615;DHT22;2320;51.362;6.946;2022-11-18T03:37:02;10.90;99.90
4615;DHT22;2320;51.362;6.946;2022-11-18T03:39:30;10.90;99.90
4615;DHT22;2320;51.362;6.946;2022-11-18T03:42:02;10.70;99.90
4615;DHT22;2320;51.362;6.946;2022-11-18T03:44:29;10.80;99.90
4615;DHT22;2320;51.362;6.946;2022-11-18T03:47:00;10.90;99.90
4615;DHT22;2320;51.362;6.946;2022-11-18T03:49:28;11.00;99.90
4615;DHT22;2320;51.362;6.946;2022-11-18T03:51:55;11.00;99.90
4615;DHT22;2320;51.362;6.946;2022-11-18T03:54:24;10.90;99.90
4615;DHT22;2320;51.362;6.946;2022-11-18T03:56:51;11.00;99.90
4615;DHT22;2320;51.362;6.946;2022-11-18T03:59:25;10.90;99.90
4615;DHT22;2320;51.362;6.946;2022-11-18T04:01:58;11.00;99.90
4615;DHT22;2320;51.362;6.946;2022-11-18T04:04:25;11.00;99.90
4615;DHT22;2320;51.362;6.946;2022-11-18T04:07:38;11.00;99.90
4615;DHT22;2320;51.362;6.946;2022-11-18T04:09:40;11.00;99.90
4615;DHT22;2320;51.362;6.946;2022-11-18T04:12:07;10.90;99.90
4615;DHT22;2320;51.362;6.946;2022-11-18T04:14:36;10.90;99.90
4615;DHT22;2320;51.362;6.946;2022-11-18T04:17:14;11.00;99.90
4615;DHT22;2320;51.362;6.946;2022-11-18T04:19:40;11.00;99.90
4615;DHT22;2320;51.362;6.946;2022-11-18T04:22:07;10.90;99.90
4615;DHT22;2320;51.362;6.946;2022-11-18T04:24:32;10.70;99.90
4615;DHT22;2320;51.362;6.946;2022-11-18T04:26:58;10.60;99.90
4615;DHT22;2320;51.362;6.946;2022-11-18T04:29:23;10.80;99.90
4615;DHT22;2320;51.362;6.946;2022-11-18T04:31:49;10.90;99.90
4615;DHT22;2320;51.362;6.946;2022-11-18T04:34:15;10.80;99.90
4615;DHT22;2320;51.362;6.946;2022-11-18T04:36:40;10.70;99.90
4615;DHT22;2320;51.362;6.946;2022-11-18T04:39:05;10.70;99.90
4615;DHT22;2320;51.362;6.946;2022-11-18T04:41:31;10.60;99.90
4615;DHT22;2320;51.362;6.946;2022-11-18T04:44:15;10.60;99.90
4615;DHT22;2320;51.362;6.946;2022-11-18T04:46:41;10.50;99.90
4615;DHT22;2320;51.362;6.946;2022-11-18T04:49:07;10.40;99.90
4615;DHT22;2320;51.362;6.946;2022-11-18T04:51:33;10.40;99.90
4615;DHT22;2320;51.362;6.946;2022-11-18T04:53:58;10.30;99.90
4615;DHT22;2320;51.362;6.946;2022-11-18T04:56:24;10.30;99.90
4615;DHT22;2320;51.362;6.946;2022-11-18T04:58:49;10.30;99.90
4615;DHT22;2320;51.362;6.946;2022-11-18T05:01:14;10.30;99.90
4615;DHT22;2320;51.362;6.946;2022-11-18T05:03:40;10.30;99.90
4615;DHT22;2320;51.362;6.946;2022-11-18T05:06:05;10.30;99.90
4615;DHT22;2320;51.362;6.946;2022-11-18T05:08:31;10.40;99.90
4615;DHT22;2320;51.362;6.946;2022-11-18T05:10:56;10.30;99.90
4615;DHT22;2320;51.362;6.946;2022-11-18T05:13:42;10.40;99.90
4615;DHT22;2320;51.362;6.946;2022-11-18T05:16:07;10.40;99.90
4615;DHT22;2320;51.362;6.946;2022-11-18T05:18:33;10.50;99.90
4615;DHT22;2320;51.362;6.946;2022-11-18T05:20:58;10.60;99.90
4615;DHT22;2320;51.362;6.946;2022-11-18T05:23:24;10.60;99.90
4615;DHT22;2320;51.362;6.946;2022-11-18T05:25:49;10.50;99.90
4615;DHT22;2320;51.362;6.946;2022-11-18T05:28:14;10.50;99.90
4615;DHT22;2320;51.362;6.946;2022-11-18T05:30:40;10.50;99.90
4615;DHT22;2320;51.362;6.946;2022-11-18T05:33:05;10.50;99.90
4615;DHT22;2320;51.362;6.946;2022-11-18T05:35:31;10.40;99.90
4615;DHT22;2320;51.362;6.946;2022-11-18T05:37:56;10.40;99.90
4615;DHT22;2320;51.362;6.946;2022-11-18T05:40:22;10.30;99.90
4615;DHT22;2320;51.362;6.946;2022-11-18T05:42:47;10.20;99.90
4615;DHT22;2320;51.362;6.946;2022-11-18T05:45:31;10.20;99.90
4615;DHT22;2320;51.362;6.946;2022-11-18T05:47:57;10.30;99.90
4615;DHT22;2320;51.362;6.946;2022-11-18T05:50:25;10.40;99.90
4615;DHT22;2320;51.362;6.946;2022-11-18T05:52:50;10.40;99.90
4615;DHT22;2320;51.362;6.946;2022-11-18T05:55:16;10.40;99.90
4615;DHT22;2320;51.362;6.946;2022-11-18T05:57:42;10.40;99.90
4615;DHT22;2320;51.362;6.946;2022-11-18T06:00:07;10.50;99.90
4615;DHT22;2320;51.362;6.946;2022-11-18T06:02:33;10.50;99.90
4615;DHT22;2320;51.362;6.946;2022-11-18T06:04:58;10.50;99.90
4615;DHT22;2320;51.362;6.946;2022-11-18T06:07:27;10.50;99.90
4615;DHT22;2320;51.362;6.946;2022-11-18T06:09:55;10.50;99.90
4615;DHT22;2320;51.362;6.946;2022-11-18T06:12:24;10.40;99.90
4615;DHT22;2320;51.362;6.946;2022-11-18T06:14:53;10.50;99.90
4615;DHT22;2320;51.362;6.946;2022-11-18T06:17:21;10.40;99.90
4615;DHT22;2320;51.362;6.946;2022-11-18T06:19:48;10.30;99.90
4615;DHT22;2320;51.362;6.946;2022-11-18T06:22:13;10.30;99.90
4615;DHT22;2320;51.362;6.946;2022-11-18T06:24:39;10.30;99.90
4615;DHT22;2320;51.362;6.946;2022-11-18T06:27:05;10.30;99.90
4615;DHT22;2320;51.362;6.946;2022-11-18T06:29:30;10.40;99.90
4615;DHT22;2320;51.362;6.946;2022-11-18T06:31:56;10.40;99.90
4615;DHT22;2320;51.362;6.946;2022-11-18T06:34:21;10.40;99.90
4615;DHT22;2320;51.362;6.946;2022-11-18T06:36:47;10.50;99.90
4615;DHT22;2320;51.362;6.946;2022-11-18T06:39:12;10.50;99.90
4615;DHT22;2320;51.362;6.946;2022-11-18T06:41:38;10.50;99.90
4615;DHT22;2320;51.362;6.946;2022-11-18T06:44:03;10.50;99.90
4615;DHT22;2320;51.362;6.946;2022-11-18T06:46:29;10.50;99.90
4615;DHT22;2320;51.362;6.946;2022-11-18T06:49:13;10.50;99.90
4615;DHT22;2320;51.362;6.946;2022-11-18T06:51:38;10.40;99.90
4615;DHT22;2320;51.362;6.946;2022-11-18T06:54:05;10.60;99.90
4615;DHT22;2320;51.362;6.946;2022-11-18T06:56:30;10.60;99.90
4615;DHT22;2320;51.362;6.946;2022-11-18T06:58:56;10.60;99.90
4615;DHT22;2320;51.362;6.946;2022-11-18T07:01:23;10.50;99.90
4615;DHT22;2320;51.362;6.946;2022-11-18T07:03:49;10.60;99.90
4615;DHT22;2320;51.362;6.946;2022-11-18T07:06:16;10.50;99.90
4615;DHT22;2320;51.362;6.946;2022-11-18T07:08:42;10.50;99.90
4615;DHT22;2320;51.362;6.946;2022-11-18T07:11:09;10.60;99.90
4615;DHT22;2320;51.362;6.946;2022-11-18T07:13:35;10.60;99.90
4615;DHT22;2320;51.362;6.946;2022-11-18T07:16:02;10.60;99.90
4615;DHT22;2320;51.362;6.946;2022-11-18T07:18:29;10.60;99.90
4615;DHT22;2320;51.362;6.946;2022-11-18T07:20:54;10.60;99.90
4615;DHT22;2320;51.362;6.946;2022-11-18T07:23:20;10.70;99.90
4615;DHT22;2320;51.362;6.946;2022-11-18T07:25:45;10.90;99.90
4615;DHT22;2320;51.362;6.946;2022-11-18T07:28:10;10.90;99.90
4615;DHT22;2320;51.362;6.946;2022-11-18T07:30:36;10.90;99.90
4615;DHT22;2320;51.362;6.946;2022-11-18T07:33:01;10.80;99.90
4615;DHT22;2320;51.362;6.946;2022-11-18T07:35:27;10.80;99.90
4615;DHT22;2320;51.362;6.946;2022-11-18T07:37:52;10.90;99.90
4615;DHT22;2320;51.362;6.946;2022-11-18T07:40:18;10.80;99.90
4615;DHT22;2320;51.362;6.946;2022-11-18T07:42:43;10.80;99.90
4615;DHT22;2320;51.362;6.946;2022-11-18T07:45:09;10.80;99.90
4615;DHT22;2320;51.362;6.946;2022-11-18T07:47:35;10.70;99.90
4615;DHT22;2320;51.362;6.946;2022-11-18T07:50:00;10.70;99.90
4615;DHT22;2320;51.362;6.946;2022-11-18T07:52:26;10.60;99.90
4615;DHT22;2320;51.362;6.946;2022-11-18T07:54:51;10.60;99.90
4615;DHT22;2320;51.362;6.946;2022-11-18T07:57:17;10.70;99.90
4615;DHT22;2320;51.362;6.946;2022-11-18T07:59:42;10.70;99.90
4615;DHT22;2320;51.362;6.946;2022-11-18T08:02:11;10.70;99.90
4615;DHT22;2320;51.362;6.946;2022-11-18T08:04:36;10.70;99.90
4615;DHT22;2320;51.362;6.946;2022-11-18T08:07:02;10.70;99.90
4615;DHT22;2320;51.362;6.946;2022-11-18T08:09:27;10.90;99.90
4615;DHT22;2320;51.362;6.946;2022-11-18T08:11:53;11.00;99.90
4615;DHT22;2320;51.362;6.946;2022-11-18T08:14:18;11.00;99.90
4615;DHT22;2320;51.362;6.946;2022-11-18T08:16:44;11.10;99.90
4615;DHT22;2320;51.362;6.946;2022-11-18T08:19:09;11.30;99.90
4615;DHT22;2320;51.362;6.946;2022-11-18T08:21:35;11.30;99.90
4615;DHT22;2320;51.362;6.946;2022-11-18T08:24:00;11.30;99.90
4615;DHT22;2320;51.362;6.946;2022-11-18T08:26:26;11.50;99.90
4615;DHT22;2320;51.362;6.946;2022-11-18T08:28:51;11.60;99.90
4615;DHT22;2320;51.362;6.946;2022-11-18T08:31:21;11.70;99.90
4615;DHT22;2320;51.362;6.946;2022-11-18T08:33:46;11.80;99.90
4615;DHT22;2320;51.362;6.946;2022-11-18T08:36:16;11.90;99.90
4615;DHT22;2320;51.362;6.946;2022-11-18T08:38:42;12.00;99.90
4615;DHT22;2320;51.362;6.946;2022-11-18T08:41:10;12.00;99.90
4615;DHT22;2320;51.362;6.946;2022-11-18T08:43:35;12.10;99.90
4615;DHT22;2320;51.362;6.946;2022-11-18T08:46:01;12.30;99.90
4615;DHT22;2320;51.362;6.946;2022-11-18T08:48:26;12.50;99.90
4615;DHT22;2320;51.362;6.946;2022-11-18T08:50:52;12.60;99.90
4615;DHT22;2320;51.362;6.946;2022-11-18T08:53:17;12.60;99.90
4615;DHT22;2320;51.362;6.946;2022-11-18T08:55:43;12.50;99.90
4615;DHT22;2320;51.362;6.946;2022-11-18T08:58:08;12.60;99.90
4615;DHT22;2320;51.362;6.946;2022-11-18T09:00:34;12.60;99.90
4615;DHT22;2320;51.362;6.946;2022-11-18T09:02:59;12.50;99.90
4615;DHT22;2320;51.362;6.946;2022-11-18T09:05:25;12.60;99.90
4615;DHT22;2320;51.362;6.946;2022-11-18T09:07:50;12.60;99.90
4615;DHT22;2320;51.362;6.946;2022-11-18T09:10:15;12.60;99.90
4615;DHT22;2320;51.362;6.946;2022-11-18T09:12:41;12.50;99.90
4615;DHT22;2320;51.362;6.946;2022-11-18T09:15:07;12.50;99.90
4615;DHT22;2320;51.362;6.946;2022-11-18T09:17:33;12.50;99.90
4615;DHT22;2320;51.362;6.946;2022-11-18T09:19:58;12.50;99.90
4615;DHT22;2320;51.362;6.946;2022-11-18T09:22:24;12.60;99.90
4615;DHT22;2320;51.362;6.946;2022-11-18T09:24:49;12.60;99.90
4615;DHT22;2320;51.362;6.946;2022-11-18T09:27:15;12.60;99.90
4615;DHT22;2320;51.362;6.946;2022-11-18T09:29:40;12.80;99.90
4615;DHT22;2320;51.362;6.946;2022-11-18T09:32:06;12.90;99.90
4615;DHT22;2320;51.362;6.946;2022-11-18T09:34:32;13.00;99.90
4615;DHT22;2320;51.362;6.946;2022-11-18T09:36:58;13.10;99.90
4615;DHT22;2320;51.362;6.946;2022-11-18T09:39:24;13.30;99.90
4615;DHT22;2320;51.362;6.946;2022-11-18T09:49:36;13.20;99.90
4615;DHT22;2320;51.362;6.946;2022-11-18T09:52:10;13.20;99.90
4615;DHT22;2320;51.362;6.946;2022-11-18T09:54:39;13.30;99.90
4615;DHT22;2320;51.362;6.946;2022-11-18T09:57:28;13.30;99.90
4615;DHT22;2320;51.362;6.946;2022-11-18T09:59:50;13.20;99.90
4615;DHT22;2320;51.362;6.946;2022-11-18T10:02:27;13.40;99.90
4615;DHT22;2320;51.362;6.946;2022-11-18T10:04:54;13.40;99.90
4615;DHT22;2320;51.362;6.946;2022-11-18T10:07:21;13.60;99.90
4615;DHT22;2320;51.362;6.946;2022-11-18T10:09:49;13.80;99.90
4615;DHT22;2320;51.362;6.946;2022-11-18T10:14:51;13.80;99.90
4615;DHT22;2320;51.362;6.946;2022-11-18T10:17:23;13.90;99.90
4615;DHT22;2320;51.362;6.946;2022-11-18T10:19:55;13.80;99.90
4615;DHT22;2320;51.362;6.946;2022-11-18T10:22:25;14.00;99.90
4615;DHT22;2320;51.362;6.946;2022-11-18T10:24:52;14.10;99.90
4615;DHT22;2320;51.362;6.946;2022-11-18T10:27:18;13.80;99.90
4615;DHT22;2320;51.362;6.946;2022-11-18T10:29:45;13.60;99.90
4615;DHT22;2320;51.362;6.946;2022-11-18T10:32:15;13.70;99.90
4615;DHT22;2320;51.362;6.946;2022-11-18T10:34:55;13.50;99.90
4615;DHT22;2320;51.362;6.946;2022-11-18T10:37:22;13.50;99.90
4615;DHT22;2320;51.362;6.946;2022-11-18T10:40:08;13.70;99.90
4615;DHT22;2320;51.362;6.946;2022-11-18T10:42:39;13.80;99.90
4615;DHT22;2320;51.362;6.946;2022-11-18T10:45:15;13.70;99.90
4615;DHT22;2320;51.362;6.946;2022-11-18T10:47:41;13.80;99.90
4615;DHT22;2320;51.362;6.946;2022-11-18T10:50:27;13.80;99.90
4615;DHT22;2320;51.362;6.946;2022-11-18T10:52:53;13.80;99.90
4615;DHT22;2320;51.362;6.946;2022-11-18T10:57:47;13.80;99.90
4615;DHT22;2320;51.362;6.946;2022-11-18T11:02:57;13.80;99.90
4615;DHT22;2320;51.362;6.946;2022-11-18T11:05:22;13.90;99.90
4615;DHT22;2320;51.362;6.946;2022-11-18T11:08:04;13.90;99.90
4615;DHT22;2320;51.362;6.946;2022-11-18T11:10:30;13.80;99.90
4615;DHT22;2320;51.362;6.946;2022-11-18T11:12:59;13.90;99.90
4615;DHT22;2320;51.362;6.946;2022-11-18T11:17:51;13.90;99.90
4615;DHT22;2320;51.362;6.946;2022-11-18T11:20:38;14.10;99.90
4615;DHT22;2320;51.362;6.946;2022-11-18T11:23:10;14.00;99.90
4615;DHT22;2320;51.362;6.946;2022-11-18T11:25:40;13.80;99.90
4615;DHT22;2320;51.362;6.946;2022-11-18T11:31:01;13.90;99.90
4615;DHT22;2320;51.362;6.946;2022-11-18T11:33:41;13.90;99.90
4615;DHT22;2320;51.362;6.946;2022-11-18T11:42:04;13.70;99.90
4615;DHT22;2320;51.362;6.946;2022-11-18T11:50:16;13.70;99.90
4615;DHT22;2320;51.362;6.946;2022-11-18T11:52:45;13.60;99.90
4615;DHT22;2320;51.362;6.946;2022-11-18T12:00:23;13.70;99.90
4615;DHT22;2320;51.362;6.946;2022-11-18T12:07:47;13.70;99.90
4615;DHT22;2320;51.362;6.946;2022-11-18T12:13:02;13.50;99.90
4615;DHT22;2320;51.362;6.946;2022-11-18T12:15:41;13.30;99.90
4615;DHT22;2320;51.362;6.946;2022-11-18T12:18:14;13.30;99.90
4615;DHT22;2320;51.362;6.946;2022-11-18T12:23:11;13.40;99.90
4615;DHT22;2320;51.362;6.946;2022-11-18T12:28:08;13.40;99.90
4615;DHT22;2320;51.362;6.946;2022-11-18T12:30:34;13.30;99.90
4615;DHT22;2320;51.362;6.946;2022-11-18T12:32:59;13.20;99.90
4615;DHT22;2320;51.362;6.946;2022-11-18T12:35:27;13.10;99.90
4615;DHT22;2320;51.362;6.946;2022-11-18T12:40:33;13.40;99.90
4615;DHT22;2320;51.362;6.946;2022-11-18T12:42:59;13.30;99.90
4615;DHT22;2320;51.362;6.946;2022-11-18T12:50:53;13.40;99.90
4615;DHT22;2320;51.362;6.946;2022-11-18T12:53:53;13.40;99.90
4615;DHT22;2320;51.362;6.946;2022-11-18T12:56:25;13.40;99.90
4615;DHT22;2320;51.362;6.946;2022-11-18T13:01:21;13.40;99.90
4615;DHT22;2320;51.362;6.946;2022-11-18T13:03:47;13.30;99.90
4615;DHT22;2320;51.362;6.946;2022-11-18T13:06:28;13.30;99.90
4615;DHT22;2320;51.362;6.946;2022-11-18T13:08:56;13.50;99.90
4615;DHT22;2320;51.362;6.946;2022-11-18T13:11:22;13.60;99.90
4615;DHT22;2320;51.362;6.946;2022-11-18T13:14:33;13.70;99.90
4615;DHT22;2320;51.362;6.946;2022-11-18T13:20:28;13.80;99.90
4615;DHT22;2320;51.362;6.946;2022-11-18T13:22:56;13.60;99.90
4615;DHT22;2320;51.362;6.946;2022-11-18T13:25:41;13.50;99.90
4615;DHT22;2320;51.362;6.946;2022-11-18T13:33:32;13.30;99.90
4615;DHT22;2320;51.362;6.946;2022-11-18T13:35:59;13.10;99.90
4615;DHT22;2320;51.362;6.946;2022-11-18T13:38:24;13.00;99.90
4615;DHT22;2320;51.362;6.946;2022-11-18T13:40:50;13.00;99.90
4615;DHT22;2320;51.362;6.946;2022-11-18T13:43:38;13.00;99.90
4615;DHT22;2320;51.362;6.946;2022-11-18T13:46:05;12.90;99.90
4615;DHT22;2320;51.362;6.946;2022-11-18T13:48:32;13.00;99.90
4615;DHT22;2320;51.362;6.946;2022-11-18T13:50:59;12.90;99.90
4615;DHT22;2320;51.362;6.946;2022-11-18T13:53:42;12.90;99.90
4615;DHT22;2320;51.362;6.946;2022-11-18T13:56:24;12.80;99.90
4615;DHT22;2320;51.362;6.946;2022-11-18T13:58:52;12.60;99.90
4615;DHT22;2320;51.362;6.946;2022-11-18T14:01:21;12.60;99.90
4615;DHT22;2320;51.362;6.946;2022-11-18T14:06:49;12.40;99.90
4615;DHT22;2320;51.362;6.946;2022-11-18T14:09:22;12.30;99.90
4615;DHT22;2320;51.362;6.946;2022-11-18T14:14:27;12.10;99.90
4615;DHT22;2320;51.362;6.946;2022-11-18T14:16:53;12.00;99.90
4615;DHT22;2320;51.362;6.946;2022-11-18T14:19:27;11.90;99.90
4615;DHT22;2320;51.362;6.946;2022-11-18T14:22:01;11.80;99.90
4615;DHT22;2320;51.362;6.946;2022-11-18T14:24:26;11.70;99.90
4615;DHT22;2320;51.362;6.946;2022-11-18T14:26:52;11.70;99.90
4615;DHT22;2320;51.362;6.946;2022-11-18T14:29:18;11.60;99.90
4615;DHT22;2320;51.362;6.946;2022-11-18T14:34:31;11.50;99.90
4615;DHT22;2320;51.362;6.946;2022-11-18T14:36:56;11.30;99.90
4615;DHT22;2320;51.362;6.946;2022-11-18T14:39:26;11.20;99.90
4615;DHT22;2320;51.362;6.946;2022-11-18T14:41:52;11.20;99.90
4615;DHT22;2320;51.362;6.946;2022-11-18T14:44:18;11.10;99.90
4615;DHT22;2320;51.362;6.946;2022-11-18T14:46:48;11.00;99.90
4615;DHT22;2320;51.362;6.946;2022-11-18T14:49:19;10.80;99.90
4615;DHT22;2320;51.362;6.946;2022-11-18T14:51:46;11.00;99.90
4615;DHT22;2320;51.362;6.946;2022-11-18T14:54:15;11.00;99.90
4615;DHT22;2320;51.362;6.946;2022-11-18T14:56:41;10.80;99.90
4615;DHT22;2320;51.362;6.946;2022-11-18T14:59:10;10.70;99.90
4615;DHT22;2320;51.362;6.946;2022-11-18T15:01:36;10.50;99.90
4615;DHT22;2320;51.362;6.946;2022-11-18T15:04:01;10.40;99.90
4615;DHT22;2320;51.362;6.946;2022-11-18T15:06:27;10.30;99.90
4615;DHT22;2320;51.362;6.946;2022-11-18T15:08:52;10.20;99.90
4615;DHT22;2320;51.362;6.946;2022-11-18T15:11:18;10.20;99.90
4615;DHT22;2320;51.362;6.946;2022-11-18T15:13:43;10.10;99.90
4615;DHT22;2320;51.362;6.946;2022-11-18T15:18:41;10.20;99.90
4615;DHT22;2320;51.362;6.946;2022-11-18T15:21:07;10.20;99.90
4615;DHT22;2320;51.362;6.946;2022-11-18T15:23:33;10.20;99.90
4615;DHT22;2320;51.362;6.946;2022-11-18T15:25:58;10.40;99.90
4615;DHT22;2320;51.362;6.946;2022-11-18T15:28:23;10.40;99.90
4615;DHT22;2320;51.362;6.946;2022-11-18T15:30:49;10.00;99.90
4615;DHT22;2320;51.362;6.946;2022-11-18T15:33:14;9.90;99.90
4615;DHT22;2320;51.362;6.946;2022-11-18T15:35:40;10.00;99.90
4615;DHT22;2320;51.362;6.946;2022-11-18T15:38:05;10.00;99.90
4615;DHT22;2320;51.362;6.946;2022-11-18T15:40:31;9.90;99.90
4615;DHT22;2320;51.362;6.946;2022-11-18T15:42:56;9.70;99.90
4615;DHT22;2320;51.362;6.946;2022-11-18T15:45:22;9.60;99.90
4615;DHT22;2320;51.362;6.946;2022-11-18T15:47:47;9.60;99.90
4615;DHT22;2320;51.362;6.946;2022-11-18T15:50:15;9.70;99.90
4615;DHT22;2320;51.362;6.946;2022-11-18T15:52:41;9.40;99.90
4615;DHT22;2320;51.362;6.946;2022-11-18T15:55:06;9.20;99.90
4615;DHT22;2320;51.362;6.946;2022-11-18T15:57:32;9.20;99.90
4615;DHT22;2320;51.362;6.946;2022-11-18T15:59:57;9.10;99.90
4615;DHT22;2320;51.362;6.946;2022-11-18T16:02:23;9.30;99.90
4615;DHT22;2320;51.362;6.946;2022-11-18T16:04:48;9.10;99.90
4615;DHT22;2320;51.362;6.946;2022-11-18T16:07:13;9.20;99.90
4615;DHT22;2320;51.362;6.946;2022-11-18T16:09:39;9.20;99.90
4615;DHT22;2320;51.362;6.946;2022-11-18T16:12:23;9.00;99.90
4615;DHT22;2320;51.362;6.946;2022-11-18T16:15:07;8.80;99.90
4615;DHT22;2320;51.362;6.946;2022-11-18T16:17:52;8.80;99.90
4615;DHT22;2320;51.362;6.946;2022-11-18T16:20:17;8.80;99.90
4615;DHT22;2320;51.362;6.946;2022-11-18T16:22:43;8.60;99.90
4615;DHT22;2320;51.362;6.946;2022-11-18T16:25:08;8.60;99.90
4615;DHT22;2320;51.362;6.946;2022-11-18T16:27:34;8.40;99.90
4615;DHT22;2320;51.362;6.946;2022-11-18T16:30:00;8.20;99.90
4615;DHT22;2320;51.362;6.946;2022-11-18T16:32:28;8.10;99.90
4615;DHT22;2320;51.362;6.946;2022-11-18T16:34:54;8.10;99.90
4615;DHT22;2320;51.362;6.946;2022-11-18T16:37:19;7.90;99.90
4615;DHT22;2320;51.362;6.946;2022-11-18T16:39:45;7.80;99.90
4615;DHT22;2320;51.362;6.946;2022-11-18T16:42:10;7.70;99.90
4615;DHT22;2320;51.362;6.946;2022-11-18T16:44:36;7.80;99.90
4615;DHT22;2320;51.362;6.946;2022-11-18T16:47:02;7.80;99.90
4615;DHT22;2320;51.362;6.946;2022-11-18T16:49:28;7.90;99.90
4615;DHT22;2320;51.362;6.946;2022-11-18T16:51:54;8.00;99.90
4615;DHT22;2320;51.362;6.946;2022-11-18T16:54:20;7.90;99.90
4615;DHT22;2320;51.362;6.946;2022-11-18T16:56:47;7.90;99.90
4615;DHT22;2320;51.362;6.946;2022-11-18T16:59:14;7.80;99.90
4615;DHT22;2320;51.362;6.946;2022-11-18T17:01:40;7.80;99.90
4615;DHT22;2320;51.362;6.946;2022-11-18T17:04:06;7.80;99.90
4615;DHT22;2320;51.362;6.946;2022-11-18T17:06:31;7.90;99.90
4615;DHT22;2320;51.362;6.946;2022-11-18T17:08:57;7.70;99.90
4615;DHT22;2320;51.362;6.946;2022-11-18T17:11:23;7.70;99.90
4615;DHT22;2320;51.362;6.946;2022-11-18T17:13:48;7.40;99.90
4615;DHT22;2320;51.362;6.946;2022-11-18T17:16:15;7.20;99.90
4615;DHT22;2320;51.362;6.946;2022-11-18T17:18:42;7.20;99.90
4615;DHT22;2320;51.362;6.946;2022-11-18T17:21:08;7.20;99.90
4615;DHT22;2320;51.362;6.946;2022-11-18T17:23:35;7.10;99.90
4615;DHT22;2320;51.362;6.946;2022-11-18T17:26:01;7.10;99.90
4615;DHT22;2320;51.362;6.946;2022-11-18T17:28:30;7.10;99.90
4615;DHT22;2320;51.362;6.946;2022-11-18T17:30:56;7.30;99.90
4615;DHT22;2320;51.362;6.946;2022-11-18T17:33:22;7.00;99.90
4615;DHT22;2320;51.362;6.946;2022-11-18T17:38:43;7.10;99.90
4615;DHT22;2320;51.362;6.946;2022-11-18T17:41:10;7.10;99.90
4615;DHT22;2320;51.362;6.946;2022-11-18T17:43:59;7.20;99.90
4615;DHT22;2320;51.362;6.946;2022-11-18T17:46:25;7.30;99.90
4615;DHT22;2320;51.362;6.946;2022-11-18T17:48:57;7.40;99.90
4615;DHT22;2320;51.362;6.946;2022-11-18T17:51:23;7.40;99.90
4615;DHT22;2320;51.362;6.946;2022-11-18T17:53:49;7.30;99.90
4615;DHT22;2320;51.362;6.946;2022-11-18T17:56:15;7.40;99.90
4615;DHT22;2320;51.362;6.946;2022-11-18T17:58:40;7.40;99.90
4615;DHT22;2320;51.362;6.946;2022-11-18T18:01:09;7.50;99.90